Cincinnati, Ohio
Traffic Map
Current Weather Conditions
Cincinnati, Ohio
Clear
Clear

Feels Like: 1°
Wind Chill: Ceiling: Unl
Heat Index: Visibility: 10mi
Dew Point: Wind: 3mph
Humidity: 100% Direction: 30° (NNE)
Pressure: 29.94in Gusts: 0mph
Raw Report DataKLUK 270953Z AUTO 03003KT 10SM CLR 01/01 A2994 RMK AO2 SLP140 T00110011
Traffic Incident Summary
Active as of:
Severity:
Category:
InformationThere was an issue retrieving the traffic information for this location. Please try a different location or try again shortly.
Advertisements
Track Severe Weather on mobile